Wetter & Webcam

Wetterdaten Diepholz (ETND)

METAR
Data not available. Military Control Zone (MCTR) is not permanently active (HX).

Sunrise (SR) / Sunset (SS)
06:52 / 15:30 UTC

Wetterdaten Bremen (EDDW)

METAR
METAR text: EDDW 171450Z 08011KT CAVOK 06/01 Q1035 NOSIG Conditions at: EDDW (BREMEN , DE) observed 1450 UTC 17 November 2018 Temperature: 6.0°C (43°F) Dewpoint: 1.0°C (34°F) [RH = 70%] Pressure (altimeter): 30.56 inches Hg (1035.0 mb) Winds: from the E (80 degrees) at 13 MPH (11 knots; 5.7 m/s) Visibility: 6 or more miles (10+ km) Ceiling: ceiling and visibility are OK Clouds: unknown Weather: no significant weather observed at this time Forecast for: EDDW (BREMEN , DE) Text: EDDW 171100Z 1712/1812 11010KT CAVOK Forecast period: 1200 to 1800 UTC 17 November 2018 Forecast type: FROM: standard forecast or significant change Winds: from the ESE (110 degrees) at 12 MPH (10 knots; 5.1 m/s) Visibility: 6 or more miles 10+ km) Ceiling: unknown Clouds: missing Weather: NSW  (no significant weather) Text: BECMG 1718/1721 05005KT Forecast period: 1800 UTC 17 November 2018 to 1200 UTC 18 November 2018 Forecast type: BECOMING: Conditions expected to become as follows by 2100 UTC 17 November 2018 Winds: from the NE (50 degrees) at 6 MPH (5 knots; 2.6 m/s) Visibility: 6 or more miles 10+ km) Ceiling: unknown Clouds: missing Weather: NSW  (no significant weather)

Copyright © 2017 Flugplatz Diepholz-Dümmerland

© 2017 Flugplatz Diepholz-Dümmerland